Time;durP1;ratioP1;P1;durP2;ratioP2;P2;SDS_P1;SDS_P2;PMS_P1;PMS_P2;Temp;Humidity;BMP_temperature;BMP_pressure;BME280_temperature;BME280_humidity;BME280_pressure;Samples;Min_cycle;Max_cycle;Signal;HPM_P1;HPM_P2
2022/12/02 00:01:11;;;;;;;47.53;19.52;;;;;;;8.88;67.99;102804.75;5052765;28;20535;-42
2022/12/02 00:03:36;;;;;;;46.33;20.67;;;;;;;8.98;67.31;102800.91;5052780;28;20048;-43
2022/12/02 00:06:02;;;;;;;48.85;20.30;;;;;;;8.84;67.44;102801.09;5052939;28;20083;-42
2022/12/02 00:08:29;;;;;;;45.17;19.50;;;;;;;8.99;67.47;102803.59;5053069;28;20067;-41
2022/12/02 00:10:59;;;;;;;48.65;21.02;;;;;;;9.08;67.45;102803.19;5035082;28;20056;-41
2022/12/02 00:13:27;;;;;;;50.55;21.15;;;;;;;8.79;67.80;102802.56;5052647;28;20104;-41
2022/12/02 00:15:56;;;;;;;48.78;20.85;;;;;;;8.80;68.17;102795.66;5051466;28;20025;-42
2022/12/02 00:18:22;;;;;;;50.50;21.48;;;;;;;9.01;67.68;102798.47;5052215;28;20059;-41
2022/12/02 00:20:47;;;;;;;45.80;19.90;;;;;;;8.99;67.33;102793.19;5052264;28;20056;-42
2022/12/02 00:23:13;;;;;;;48.38;20.35;;;;;;;8.96;67.44;102785.25;5052571;28;20035;-42
2022/12/02 00:25:40;;;;;;;49.00;21.13;;;;;;;9.06;67.36;102786.59;5052540;28;20029;-42
2022/12/02 00:28:05;;;;;;;50.35;21.38;;;;;;;9.09;67.28;102784.16;5052470;28;20455;-41
2022/12/02 00:30:30;;;;;;;50.17;21.13;;;;;;;9.12;67.15;102784.28;5051712;28;20028;-40
2022/12/02 00:32:55;;;;;;;49.10;21.27;;;;;;;9.10;67.35;102784.19;5052042;28;20036;-41
2022/12/02 00:35:29;;;;;;;50.42;21.48;;;;;;;8.99;67.83;102787.09;5052297;28;20071;-41
2022/12/02 00:37:54;;;;;;;49.13;21.80;;;;;;;9.01;67.70;102781.16;5052085;28;20035;-42
2022/12/02 00:40:20;;;;;;;48.28;21.73;;;;;;;9.12;67.04;102785.19;5051948;28;20029;-41
2022/12/02 00:42:45;;;;;;;51.55;22.15;;;;;;;9.13;67.27;102781.78;5052287;28;20137;-41
2022/12/02 00:47:55;;;;;;;51.70;22.70;;;;;;;8.99;67.51;102771.47;5052138;28;20112;-41
2022/12/02 00:50:20;;;;;;;53.10;21.98;;;;;;;8.96;67.87;102777.44;5052270;28;20032;-39
2022/12/02 00:52:46;;;;;;;50.15;21.85;;;;;;;9.05;67.67;102777.00;5051971;28;20090;-44
2022/12/02 00:55:11;;;;;;;50.35;21.80;;;;;;;9.09;67.50;102782.41;5051937;28;20544;-41
2022/12/02 00:57:36;;;;;;;60.03;23.45;;;;;;;8.78;67.85;102768.72;5052109;28;20037;-41
2022/12/02 01:00:04;;;;;;;53.88;22.20;;;;;;;9.06;67.71;102771.88;5051625;28;20025;-41
2022/12/02 01:02:29;;;;;;;53.72;22.00;;;;;;;8.94;67.79;102766.94;5051576;28;20024;-41
2022/12/02 01:04:55;;;;;;;58.50;23.98;;;;;;;8.75;68.75;102766.84;5051831;28;20028;-41
2022/12/02 01:07:20;;;;;;;55.35;23.70;;;;;;;8.80;68.47;102757.56;5052615;28;20430;-39
2022/12/02 01:09:45;;;;;;;56.85;23.05;;;;;;;8.92;67.74;102763.38;5052018;28;20029;-41
2022/12/02 01:12:10;;;;;;;61.33;23.60;;;;;;;8.98;68.13;102767.97;5051127;28;20021;-39
2022/12/02 01:14:36;;;;;;;57.80;23.55;;;;;;;9.05;67.59;102766.56;5051523;28;20107;-41
2022/12/02 01:17:01;;;;;;;54.25;23.05;;;;;;;8.98;67.48;102772.28;5051687;28;20035;-43
2022/12/02 01:19:26;;;;;;;63.47;23.70;;;;;;;8.89;67.88;102771.03;5052090;28;20508;-40
2022/12/02 01:21:51;;;;;;;55.85;23.98;;;;;;;8.87;68.06;102772.66;5051568;28;20044;-43
2022/12/02 01:24:17;;;;;;;61.28;24.63;;;;;;;8.79;67.73;102767.88;5052241;28;20397;-42
2022/12/02 01:26:42;;;;;;;57.80;24.10;;;;;;;8.99;67.58;102766.28;5052783;28;20024;-41
2022/12/02 01:29:07;;;;;;;64.20;24.95;;;;;;;9.09;67.39;102771.13;5054119;28;20473;-41
2022/12/02 01:31:33;;;;;;;63.55;26.08;;;;;;;9.04;67.49;102770.88;5055225;28;20036;-41
2022/12/02 01:33:58;;;;;;;67.30;26.30;;;;;;;8.89;67.43;102765.84;5055743;28;20052;-41
2022/12/02 01:36:24;;;;;;;67.53;26.10;;;;;;;8.87;67.54;102764.84;5058260;28;20041;-41
2022/12/02 01:38:49;;;;;;;66.72;26.83;;;;;;;8.82;67.31;102768.94;5053585;28;20032;-41
2022/12/02 01:41:14;;;;;;;69.45;27.65;;;;;;;8.54;67.84;102776.13;5053285;28;20025;-41
2022/12/02 01:43:40;;;;;;;67.97;27.30;;;;;;;8.94;66.98;102769.56;5054065;28;20021;-40
2022/12/02 01:46:07;;;;;;;70.13;27.88;;;;;;;8.78;66.94;102774.78;5054462;28;20028;-41
2022/12/02 01:48:34;;;;;;;74.38;29.70;;;;;;;8.81;67.06;102769.75;5054604;28;20131;-40
2022/12/02 01:50:59;;;;;;;74.38;29.38;;;;;;;8.66;67.14;102763.75;5052809;28;20173;-40
2022/12/02 01:53:25;;;;;;;68.82;28.77;;;;;;;8.86;66.78;102764.78;5051706;28;20111;-41
2022/12/02 01:55:50;;;;;;;74.55;29.77;;;;;;;8.83;66.33;102764.63;5051183;28;20405;-42
2022/12/02 01:58:22;;;;;;;72.28;28.95;;;;;;;8.86;66.17;102777.78;5051202;28;20453;-40
2022/12/02 02:00:47;;;;;;;76.80;29.23;;;;;;;8.69;67.02;102784.72;5050154;28;20098;-41
2022/12/02 02:03:12;;;;;;;76.10;30.02;;;;;;;8.71;66.72;102775.31;5050603;28;20721;-41
2022/12/02 02:05:38;;;;;;;78.25;30.08;;;;;;;8.50;67.13;102772.47;5050725;28;20496;-41
2022/12/02 02:08:06;;;;;;;75.80;29.35;;;;;;;8.44;66.95;102766.97;5050294;28;20488;-40
2022/12/02 02:10:33;;;;;;;71.75;29.70;;;;;;;8.62;66.54;102758.31;5050017;28;20037;-41
2022/12/02 02:12:59;;;;;;;73.97;29.70;;;;;;;8.68;66.22;102756.94;5049126;28;20108;-41
2022/12/02 02:15:25;;;;;;;76.47;30.10;;;;;;;8.74;65.65;102764.16;5050067;28;20029;-42
2022/12/02 02:17:51;;;;;;;72.40;28.88;;;;;;;8.73;65.82;102762.34;5050548;28;20047;-40
2022/12/02 02:20:21;;;;;;;76.53;29.77;;;;;;;8.63;66.15;102757.50;5049968;28;20036;-38
2022/12/02 02:22:52;;;;;;;73.32;29.48;;;;;;;8.66;65.97;102749.88;5050208;28;20024;-44
2022/12/02 02:25:18;;;;;;;72.00;28.50;;;;;;;8.66;65.90;102758.53;5050064;28;20090;-42
2022/12/02 02:27:52;;;;;;;77.20;29.73;;;;;;;8.44;66.21;102753.97;5050302;28;20025;-41
2022/12/02 02:30:18;;;;;;;;;;;;;;;8.61;65.53;102746.13;5050259;28;20474;-40
2022/12/02 02:32:43;;;;;;;67.15;27.75;;;;;;;8.65;65.40;102740.28;5049898;28;19960;-41
2022/12/02 02:35:09;;;;;;;72.70;28.45;;;;;;;8.66;65.48;102736.88;5050150;28;20417;-41
2022/12/02 02:37:35;;;;;;;75.45;29.98;;;;;;;8.39;65.99;102739.84;5050239;28;20490;-41
2022/12/02 02:40:00;;;;;;;80.28;28.98;;;;;;;8.40;66.32;102752.03;5052449;28;20040;-40
2022/12/02 02:42:26;;;;;;;71.13;28.65;;;;;;;8.54;66.00;102752.72;5054481;28;20087;-40
2022/12/02 02:44:53;;;;;;;74.57;29.05;;;;;;;8.50;66.38;102732.59;5055003;28;20035;-41
2022/12/02 02:47:18;;;;;;;73.22;28.48;;;;;;;8.47;66.37;102733.34;5054920;28;20103;-42
2022/12/02 02:49:44;;;;;;;77.72;30.27;;;;;;;8.44;66.33;102738.38;5054660;28;20033;-41
2022/12/02 02:52:10;;;;;;;77.22;29.73;;;;;;;8.49;66.38;102736.91;5054567;28;20021;-40
2022/12/02 02:54:35;;;;;;;74.45;29.30;;;;;;;8.66;66.09;102727.34;5053726;28;20481;-41
2022/12/02 02:57:01;;;;;;;71.75;29.20;;;;;;;8.61;66.13;102722.72;5053684;28;20028;-41
2022/12/02 02:59:26;;;;;;;75.57;29.52;;;;;;;8.55;66.25;102721.63;5053333;28;20021;-40
2022/12/02 03:01:52;;;;;;;78.78;31.20;;;;;;;8.53;66.00;102725.88;5053391;28;20121;-41
2022/12/02 03:04:21;;;;;;;78.53;30.10;;;;;;;8.34;66.43;102723.13;5053578;28;20025;-38
2022/12/02 03:06:48;;;;;;;73.53;28.98;;;;;;;8.40;66.43;102726.03;5053739;28;20028;-41
2022/12/02 03:09:17;;;;;;;73.40;28.70;;;;;;;8.40;66.21;102717.34;5053733;28;20036;-43
2022/12/02 03:11:45;;;;;;;77.13;29.02;;;;;;;8.54;65.62;102708.53;5074861;22;20129;-47
2022/12/02 03:14:11;;;;;;;73.80;27.98;;;;;;;8.70;65.28;102710.22;5053124;28;20493;-42
2022/12/02 03:16:37;;;;;;;73.15;29.02;;;;;;;8.72;65.22;102706.84;5054061;28;20031;-43
2022/12/02 03:19:03;;;;;;;75.07;28.85;;;;;;;8.39;65.53;102708.66;5053757;28;20028;-43
2022/12/02 03:21:29;;;;;;;72.82;28.52;;;;;;;8.62;65.30;102706.31;5053383;28;20444;-42
2022/12/02 03:23:57;;;;;;;76.90;28.73;;;;;;;8.43;65.54;102707.09;5052260;28;20028;-44
2022/12/02 03:26:22;;;;;;;70.88;27.75;;;;;;;8.41;64.86;102714.84;5053335;28;20119;-47
2022/12/02 03:28:48;;;;;;;74.63;27.13;;;;;;;8.25;65.63;102722.59;5052888;28;20203;-42
2022/12/02 03:31:14;;;;;;;73.30;27.02;;;;;;;8.35;65.42;102717.13;5053308;28;20055;-41
2022/12/02 03:33:41;;;;;;;76.28;26.35;;;;;;;8.62;64.97;102719.31;5053371;28;20547;-42
2022/12/02 03:36:08;;;;;;;73.80;28.25;;;;;;;8.44;65.41;102709.78;5053473;28;20481;-40
2022/12/02 03:38:33;;;;;;;70.32;26.10;;;;;;;8.77;64.00;102702.81;5053791;28;20017;-42
2022/12/02 03:41:01;;;;;;;68.90;26.48;;;;;;;8.77;64.27;102700.19;5052965;28;20039;-45
2022/12/02 03:43:26;;;;;;;70.60;27.38;;;;;;;8.66;64.26;102693.53;5053454;28;20075;-41
2022/12/02 03:45:52;;;;;;;73.25;27.23;;;;;;;8.74;64.57;102686.13;5052864;28;20024;-44
2022/12/02 03:48:20;;;;;;;77.95;27.35;;;;;;;8.84;63.92;102684.06;5053143;28;20439;-45
2022/12/02 03:50:47;;;;;;;74.93;27.52;;;;;;;8.65;64.15;102680.50;5053108;28;20032;-45
2022/12/02 03:53:13;;;;;;;76.38;27.50;;;;;;;8.82;63.88;102692.63;5052950;28;20036;-42
2022/12/02 03:55:38;;;;;;;69.75;25.58;;;;;;;8.86;63.83;102691.94;5053227;28;20029;-41
2022/12/02 03:58:06;;;;;;;76.38;27.25;;;;;;;8.77;63.99;102688.91;5053236;28;20049;-44
2022/12/02 04:00:32;;;;;;;76.47;28.05;;;;;;;8.58;64.19;102688.81;5052717;28;20073;-41
2022/12/02 04:02:57;;;;;;;72.60;27.33;;;;;;;8.84;63.95;102691.84;5052932;28;20021;-42
2022/12/02 04:05:23;;;;;;;74.80;28.17;;;;;;;8.40;64.77;102694.84;5052368;28;20028;-43
2022/12/02 04:07:48;;;;;;;74.72;26.75;;;;;;;8.18;65.91;102694.50;5052277;28;20110;-45
2022/12/02 04:10:13;;;;;;;74.47;27.42;;;;;;;8.66;64.49;102683.16;5051723;28;20123;-40
2022/12/02 04:12:38;;;;;;;72.75;26.58;;;;;;;8.82;63.87;102682.22;5052098;28;20051;-42
2022/12/02 04:15:04;;;;;;;69.18;27.40;;;;;;;8.79;64.32;102682.06;5054147;28;20103;-42
2022/12/02 04:17:30;;;;;;;77.07;27.83;;;;;;;8.47;65.38;102680.47;5053623;28;20103;-42
2022/12/02 04:19:55;;;;;;;75.00;27.65;;;;;;;8.70;64.33;102679.91;5053355;28;20024;-44
2022/12/02 04:22:20;;;;;;;74.63;25.80;;;;;;;8.73;64.55;102679.16;5053676;28;20024;-41
2022/12/02 04:24:46;;;;;;;72.55;26.60;;;;;;;8.36;65.52;102679.91;5053810;28;20086;-45
2022/12/02 04:27:11;;;;;;;71.75;26.45;;;;;;;8.54;64.91;102673.03;5053272;28;20203;-44
2022/12/02 04:29:36;;;;;;;79.20;26.92;;;;;;;8.66;64.41;102667.53;5053049;28;20035;-42
2022/12/02 04:32:02;;;;;;;77.20;27.17;;;;;;;8.63;64.71;102666.50;5053095;28;20027;-46
2022/12/02 04:34:27;;;;;;;76.93;27.83;;;;;;;8.69;64.69;102667.72;5057609;28;20028;-41
2022/12/02 04:36:52;;;;;;;71.82;27.88;;;;;;;8.57;64.75;102656.72;5056827;28;20128;-42
2022/12/02 04:39:17;;;;;;;73.60;27.45;;;;;;;8.63;65.03;102663.91;5054219;28;20025;-41
2022/12/02 04:41:43;;;;;;;77.68;27.40;;;;;;;8.31;65.80;102658.00;5051794;28;20017;-43
2022/12/02 04:44:08;;;;;;;76.55;28.00;;;;;;;8.68;64.68;102659.84;5050324;28;20473;-44
2022/12/02 04:46:33;;;;;;;77.13;27.83;;;;;;;8.59;65.37;102651.59;5051429;28;20242;-43
2022/12/02 04:48:58;;;;;;;77.93;26.85;;;;;;;8.33;65.69;102658.97;5051472;28;20048;-47
2022/12/02 04:51:24;;;;;;;79.00;27.25;;;;;;;8.19;65.85;102649.53;5051504;28;20028;-43
2022/12/02 04:53:49;;;;;;;67.80;25.58;;;;;;;8.62;65.02;102649.13;5051332;28;20367;-42
2022/12/02 04:56:14;;;;;;;67.75;26.00;;;;;;;8.54;65.09;102656.53;5051233;28;20035;-43
2022/12/02 04:58:40;;;;;;;67.07;24.27;;;;;;;8.45;65.26;102646.59;5050893;28;20098;-43
2022/12/02 05:01:05;;;;;;;65.35;24.02;;;;;;;8.61;64.83;102645.63;5050780;28;20416;-42
2022/12/02 05:03:30;;;;;;;66.70;23.67;;;;;;;8.66;64.88;102644.16;5050600;28;20031;-42
2022/12/02 05:05:55;;;;;;;60.50;23.52;;;;;;;8.26;65.40;102645.53;5051338;28;20123;-43
2022/12/02 05:08:21;;;;;;;57.72;22.50;;;;;;;8.28;65.08;102649.13;5051366;28;20036;-42
2022/12/02 05:10:46;;;;;;;55.85;21.40;;;;;;;8.46;64.68;102642.28;5050699;28;20523;-44
2022/12/02 05:13:11;;;;;;;52.17;21.23;;;;;;;8.53;64.27;102634.00;5050870;28;20028;-43
2022/12/02 05:15:37;;;;;;;48.88;20.45;;;;;;;8.19;64.54;102631.34;5051019;28;20017;-40
2022/12/02 05:18:02;;;;;;;45.15;19.13;;;;;;;8.40;63.61;102635.09;5051368;28;20408;-45
2022/12/02 05:20:27;;;;;;;48.70;20.00;;;;;;;8.53;63.49;102634.00;5051562;28;20028;-41
2022/12/02 05:22:53;;;;;;;46.75;20.05;;;;;;;8.53;63.30;102634.88;5052091;28;20086;-43
2022/12/02 05:25:18;;;;;;;47.05;19.73;;;;;;;8.28;63.96;102638.72;5051068;28;20103;-42
2022/12/02 05:27:43;;;;;;;43.45;19.02;;;;;;;8.40;63.79;102631.59;5051394;28;20141;-42
2022/12/02 05:30:10;;;;;;;47.28;20.00;;;;;;;8.01;64.81;102638.19;5050702;28;20032;-41
2022/12/02 05:32:36;;;;;;;48.40;19.52;;;;;;;8.09;64.17;102644.69;5051359;28;20560;-42
2022/12/02 05:35:01;;;;;;;48.70;19.35;;;;;;;8.17;64.35;102643.41;5052589;28;20096;-42
2022/12/02 05:37:26;;;;;;;49.13;19.88;;;;;;;8.01;64.83;102639.09;5052510;28;20029;-45
2022/12/02 05:39:52;;;;;;;45.05;18.80;;;;;;;7.89;64.58;102648.84;5051732;28;20032;-42
2022/12/02 05:42:17;;;;;;;43.78;18.65;;;;;;;8.10;64.10;102642.19;5051994;28;20116;-41
2022/12/02 05:44:43;;;;;;;45.05;19.13;;;;;;;8.31;63.89;102638.91;5050911;28;20017;-44
2022/12/02 05:47:14;;;;;;;47.13;19.45;;;;;;;8.22;64.50;102638.41;5050973;28;20141;-45
2022/12/02 05:49:41;;;;;;;49.83;20.42;;;;;;;7.97;64.88;102639.75;5050824;28;20467;-40
2022/12/02 05:52:28;;;;;;;51.90;19.85;;;;;;;8.32;64.43;102633.78;5050403;28;20033;-46
2022/12/02 05:54:57;;;;;;;50.15;20.05;;;;;;;8.26;64.56;102633.44;5051085;28;20496;-42
2022/12/02 05:57:28;;;;;;;51.03;19.98;;;;;;;8.22;64.33;102628.03;5054150;28;20033;-43
2022/12/02 06:00:22;;;;;;;52.10;20.42;;;;;;;8.36;64.24;102637.44;5054615;28;20020;-42
2022/12/02 06:02:52;;;;;;;50.83;20.45;;;;;;;8.38;64.39;102628.91;5055280;28;20017;-43
2022/12/02 06:05:22;;;;;;;55.15;21.23;;;;;;;8.32;64.17;102628.59;5051854;28;20029;-44
2022/12/02 06:07:52;;;;;;;51.17;20.52;;;;;;;8.42;63.96;102633.44;5051086;28;20051;-44
2022/12/02 06:10:22;;;;;;;55.10;20.50;;;;;;;8.50;63.80;102634.72;5053734;28;20327;-44
2022/12/02 06:12:49;;;;;;;57.53;21.50;;;;;;;8.21;64.52;102639.22;5055172;28;20029;-43
2022/12/02 06:15:15;;;;;;;57.97;22.20;;;;;;;8.01;64.51;102635.59;5051515;28;20036;-41
2022/12/02 06:17:41;;;;;;;58.47;21.63;;;;;;;8.26;64.11;102630.84;5050418;28;20417;-45
2022/12/02 06:20:17;;;;;;;52.90;21.58;;;;;;;8.04;64.61;102641.88;5050148;28;20052;-43
2022/12/02 06:22:42;;;;;;;51.92;21.05;;;;;;;8.30;63.48;102637.09;5050001;28;20119;-43
2022/12/02 06:25:23;;;;;;;55.78;20.73;;;;;;;8.05;64.01;102634.97;5050339;28;20086;-42
2022/12/02 06:27:48;;;;;;;53.95;20.85;;;;;;;8.31;63.29;102639.81;5049908;28;20032;-43
2022/12/02 06:30:14;;;;;;;54.92;21.42;;;;;;;7.72;64.44;102640.19;5050026;28;20017;-43
2022/12/02 06:32:46;;;;;;;55.97;20.92;;;;;;;7.79;64.47;102633.59;5049364;28;20158;-42
2022/12/02 06:35:22;;;;;;;49.50;19.30;;;;;;;7.68;64.34;102637.34;5049904;28;20024;-43
2022/12/02 06:37:49;;;;;;;53.22;19.65;;;;;;;7.69;64.10;102645.19;5049745;28;20037;-44
2022/12/02 06:40:25;;;;;;;52.47;19.13;;;;;;;7.67;64.07;102645.94;5049253;28;20068;-48
2022/12/02 06:42:51;;;;;;;56.85;20.63;;;;;;;8.07;62.90;102633.31;5049985;28;20498;-41
2022/12/02 06:45:29;;;;;;;56.45;20.08;;;;;;;7.70;63.73;102638.31;5050361;28;20024;-45
2022/12/02 06:47:54;;;;;;;61.33;20.52;;;;;;;7.74;63.81;102633.34;5050872;28;20021;-43
2022/12/02 06:50:26;;;;;;;55.40;19.63;;;;;;;7.86;63.66;102640.03;5052345;28;20396;-46
2022/12/02 06:52:54;;;;;;;57.80;19.67;;;;;;;7.67;63.96;102641.66;5053043;28;20051;-45
2022/12/02 06:55:46;;;;;;;54.67;20.23;;;;;;;7.48;64.45;102640.56;5053183;28;20033;-42
2022/12/02 06:58:32;;;;;;;53.03;19.83;;;;;;;7.32;64.15;102644.00;5052504;28;20049;-42
2022/12/02 07:01:06;;;;;;;52.08;19.77;;;;;;;7.53;64.21;102649.50;5053449;28;20107;-41
2022/12/02 07:03:35;;;;;;;54.63;19.48;;;;;;;7.15;64.36;102634.44;5054608;28;20017;-41
2022/12/02 07:06:24;;;;;;;52.08;19.23;;;;;;;7.08;64.66;102640.06;5054295;28;20025;-45
2022/12/02 07:08:50;;;;;;;56.70;18.70;;;;;;;7.30;63.82;102646.56;5047398;28;20064;-43
2022/12/02 07:11:49;;;;;;;52.47;19.08;;;;;;;7.26;64.75;102643.69;5049719;28;20427;-42
2022/12/02 07:14:33;;;;;;;53.40;20.15;;;;;;;7.26;64.09;102641.97;5048976;28;20238;-46
2022/12/02 07:17:05;;;;;;;54.58;18.42;;;;;;;7.39;64.00;102646.13;5050238;28;20505;-43
2022/12/02 07:19:41;;;;;;;56.88;19.63;;;;;;;7.38;63.68;102648.69;5050422;28;20040;-42
2022/12/02 07:22:15;;;;;;;52.40;19.20;;;;;;;7.22;64.02;102654.72;5049646;28;20071;-43
2022/12/02 07:24:41;;;;;;;53.75;19.10;;;;;;;7.16;64.29;102649.19;5048698;28;20393;-44
2022/12/02 07:27:21;;;;;;;49.70;19.17;;;;;;;7.00;64.62;102655.22;5052211;28;20477;-42
2022/12/02 07:29:48;;;;;;;49.67;18.35;;;;;;;6.78;64.10;102652.22;5051982;28;20116;-45
2022/12/02 07:32:13;;;;;;;56.45;19.38;;;;;;;7.03;63.71;102657.97;5051891;28;20141;-43
2022/12/02 07:34:38;;;;;;;52.70;18.95;;;;;;;6.88;63.73;102663.22;5052526;28;20036;-43
2022/12/02 07:37:04;;;;;;;48.63;18.80;;;;;;;6.84;63.96;102668.13;5053600;28;20025;-42
2022/12/02 07:39:29;;;;;;;52.13;18.50;;;;;;;6.80;63.96;102664.47;5053826;28;20093;-42
2022/12/02 07:41:54;;;;;;;46.45;17.92;;;;;;;7.01;63.08;102667.41;5052836;28;20052;-44
2022/12/02 07:44:19;;;;;;;50.88;18.33;;;;;;;6.99;62.64;102668.09;5053461;28;20351;-42
2022/12/02 07:46:45;;;;;;;46.58;17.77;;;;;;;7.27;62.81;102661.03;5052019;28;20060;-44
2022/12/02 07:49:10;;;;;;;50.65;18.33;;;;;;;7.35;62.87;102662.38;5051378;28;20021;-44
2022/12/02 07:51:35;;;;;;;53.22;18.83;;;;;;;7.28;62.90;102666.31;5051663;28;20029;-42
2022/12/02 07:54:01;;;;;;;48.75;17.90;;;;;;;7.07;63.17;102670.34;5051793;28;20024;-47
2022/12/02 07:56:26;;;;;;;53.67;18.70;;;;;;;6.90;63.32;102678.84;5051655;28;20488;-46
2022/12/02 07:58:51;;;;;;;50.75;17.98;;;;;;;6.91;63.38;102673.75;5052140;28;20110;-44
2022/12/02 08:01:17;;;;;;;45.90;17.55;;;;;;;6.93;63.20;102668.66;5050877;28;20024;-44
2022/12/02 08:03:42;;;;;;;50.10;17.00;;;;;;;6.91;62.94;102673.75;5051629;28;20009;-43
2022/12/02 08:06:07;;;;;;;45.85;17.05;;;;;;;6.85;62.79;102673.41;5051607;28;20033;-45
2022/12/02 08:08:33;;;;;;;45.25;17.63;;;;;;;6.97;62.67;102670.59;5051269;28;20028;-42
2022/12/02 08:10:58;;;;;;;46.15;17.25;;;;;;;7.05;62.70;102674.53;5014586;28;1061735;-44
2022/12/02 08:13:23;;;;;;;43.25;17.95;;;;;;;7.14;62.63;102675.03;5052500;28;20059;-41
2022/12/02 08:15:49;;;;;;;48.85;16.52;;;;;;;7.06;62.54;102672.84;5052038;28;20028;-44
2022/12/02 08:18:14;;;;;;;43.33;16.20;;;;;;;7.10;62.33;102674.78;5052347;28;20358;-45
2022/12/02 08:20:39;;;;;;;42.25;17.15;;;;;;;7.09;61.44;102673.88;5052125;28;20395;-45
2022/12/02 08:23:06;;;;;;;44.95;16.60;;;;;;;6.95;61.78;102677.44;5051591;28;20089;-41
2022/12/02 08:25:31;;;;;;;41.58;16.33;;;;;;;6.89;62.32;102684.84;5052012;28;20021;-42
2022/12/02 08:27:56;;;;;;;40.65;15.95;;;;;;;7.19;62.07;102683.09;5051946;28;20021;-46
2022/12/02 08:30:22;;;;;;;36.22;14.90;;;;;;;7.22;61.91;102684.13;5051468;28;20025;-42
2022/12/02 08:32:47;;;;;;;35.75;14.65;;;;;;;6.76;62.21;102678.06;5051886;28;20401;-46
2022/12/02 08:35:13;;;;;;;38.33;15.45;;;;;;;7.08;62.24;102682.47;5052055;28;20032;-45
2022/12/02 08:37:38;;;;;;;38.67;14.98;;;;;;;7.20;61.62;102682.25;5051138;28;20028;-43
2022/12/02 08:40:04;;;;;;;38.63;15.02;;;;;;;7.28;61.60;102691.38;5051996;28;20507;-42
2022/12/02 08:42:29;;;;;;;36.97;15.05;;;;;;;7.02;62.06;102682.13;5051877;28;20024;-42
2022/12/02 08:44:55;;;;;;;37.88;14.55;;;;;;;7.18;62.07;102678.72;5051512;28;20021;-43
2022/12/02 08:47:20;;;;;;;34.38;14.00;;;;;;;7.32;61.59;102677.75;5051594;28;20489;-44
2022/12/02 08:49:45;;;;;;;34.47;14.43;;;;;;;7.40;61.01;102680.78;5051675;28;20033;-43
2022/12/02 08:52:10;;;;;;;34.38;14.20;;;;;;;7.37;60.92;102678.91;5051253;28;20021;-43
2022/12/02 08:54:37;;;;;;;37.88;14.88;;;;;;;7.66;60.44;102680.50;5051881;28;20392;-46
2022/12/02 08:57:02;;;;;;;35.63;13.07;;;;;;;7.54;60.47;102679.84;5051948;28;20108;-42
2022/12/02 08:59:27;;;;;;;37.00;14.15;;;;;;;7.40;60.33;102688.56;5051451;28;20103;-45
2022/12/02 09:01:53;;;;;;;32.33;13.85;;;;;;;7.28;60.85;102684.47;5050999;28;20032;-43
2022/12/02 09:04:19;;;;;;;35.33;13.82;;;;;;;7.14;61.25;102682.81;5051338;28;20020;-42
2022/12/02 09:06:44;;;;;;;34.38;13.60;;;;;;;7.54;60.93;102672.94;5051365;28;20080;-44
2022/12/02 09:09:10;;;;;;;32.00;13.52;;;;;;;7.47;60.36;102669.91;5051605;28;20020;-42
2022/12/02 09:11:35;;;;;;;31.08;13.50;;;;;;;7.16;60.95;102672.53;5068671;22;20475;-41
2022/12/02 09:14:01;;;;;;;30.05;12.50;;;;;;;7.31;60.80;102674.28;5055391;28;20018;-41
2022/12/02 09:16:26;;;;;;;32.35;13.35;;;;;;;7.38;60.52;102678.09;5053941;28;20027;-44
2022/12/02 09:18:54;;;;;;;32.53;13.55;;;;;;;7.70;59.79;102683.31;5053395;28;20017;-42
2022/12/02 09:21:20;;;;;;;32.95;13.00;;;;;;;7.85;59.95;102679.78;5053578;28;20024;-41
2022/12/02 09:23:45;;;;;;;33.83;13.65;;;;;;;7.50;60.44;102668.38;5053771;28;20060;-41
2022/12/02 09:26:10;;;;;;;31.73;13.50;;;;;;;7.78;60.36;102673.34;5053987;28;20033;-46
2022/12/02 09:28:36;;;;;;;31.85;13.43;;;;;;;7.42;61.29;102682.66;5053912;28;20075;-41
2022/12/02 09:31:01;;;;;;;32.13;13.60;;;;;;;7.67;61.07;102680.59;5054712;28;20036;-40
2022/12/02 09:33:26;;;;;;;33.97;13.65;;;;;;;7.58;61.45;102680.06;5055191;28;20040;-40
2022/12/02 09:35:52;;;;;;;32.58;14.05;;;;;;;7.65;61.28;102677.00;5055161;28;20028;-41
2022/12/02 09:38:17;;;;;;;29.98;13.30;;;;;;;8.02;60.73;102677.25;5055101;28;20033;-42
2022/12/02 09:40:42;;;;;;;31.88;12.90;;;;;;;8.02;60.54;102674.66;5053908;28;20499;-41
2022/12/02 09:43:08;;;;;;;34.50;13.65;;;;;;;8.04;60.81;102673.03;5053621;28;20071;-42
2022/12/02 09:45:33;;;;;;;30.73;14.05;;;;;;;7.89;60.55;102685.19;5054284;28;20100;-40
2022/12/02 09:47:59;;;;;;;31.25;13.07;;;;;;;8.00;60.32;102675.38;5052151;28;20086;-41
2022/12/02 09:50:25;;;;;;;27.42;12.50;;;;;;;7.73;61.10;102686.09;5052394;28;20547;-40
2022/12/02 09:52:50;;;;;;;29.42;12.70;;;;;;;7.45;61.45;102680.22;5052592;28;20551;-40
2022/12/02 09:55:19;;;;;;;29.05;12.63;;;;;;;7.70;60.89;102674.66;5054060;28;20029;-40
2022/12/02 09:57:45;;;;;;;31.13;12.55;;;;;;;7.41;61.66;102674.78;5055046;28;20385;-41
2022/12/02 10:00:21;;;;;;;27.95;12.55;;;;;;;7.36;60.93;102666.75;5054959;28;20080;-40
2022/12/02 10:02:49;;;;;;;27.38;12.80;;;;;;;7.34;61.54;102671.84;5054525;28;20024;-41
2022/12/02 10:05:19;;;;;;;25.90;12.20;;;;;;;7.14;62.22;102668.94;5055696;28;20025;-42
2022/12/02 10:07:46;;;;;;;29.75;12.20;;;;;;;7.22;61.77;102665.09;5054996;28;20087;-42
2022/12/02 10:10:14;;;;;;;29.85;11.88;;;;;;;7.61;60.83;102659.50;5053099;28;20032;-41
2022/12/02 10:12:39;;;;;;;26.00;11.48;;;;;;;7.60;60.73;102670.69;5052139;28;20033;-43
2022/12/02 10:15:05;;;;;;;26.00;11.70;;;;;;;7.67;60.44;102664.13;5052490;28;20033;-41
2022/12/02 10:17:31;;;;;;;28.80;12.25;;;;;;;7.94;60.45;102656.88;5054828;28;20033;-40
2022/12/02 10:19:56;;;;;;;27.58;11.98;;;;;;;7.87;59.98;102652.19;5055538;28;20039;-43
2022/12/02 10:22:22;;;;;;;25.98;11.32;;;;;;;8.06;59.94;102653.22;5052200;28;20393;-40
2022/12/02 10:24:47;;;;;;;25.50;11.80;;;;;;;7.81;59.65;102657.94;5053190;28;20388;-42
2022/12/02 10:27:31;;;;;;;26.63;11.40;;;;;;;8.08;59.52;102650.69;5053024;28;20029;-40
2022/12/02 10:30:14;;;;;;;27.95;11.90;;;;;;;8.28;59.17;102639.63;5053747;28;20020;-41
2022/12/02 10:32:40;;;;;;;27.48;12.38;;;;;;;8.37;58.70;102641.81;5054230;28;20032;-41
2022/12/02 10:35:10;;;;;;;28.50;11.52;;;;;;;8.08;59.50;102638.59;5053165;28;20025;-40
2022/12/02 10:37:36;;;;;;;29.05;11.88;;;;;;;7.77;60.13;102634.31;5050963;28;20484;-41
2022/12/02 10:40:07;;;;;;;25.85;12.02;;;;;;;7.80;61.21;102634.50;5050561;28;20062;-44
2022/12/02 10:42:33;;;;;;;29.70;12.63;;;;;;;7.82;61.36;102628.56;5050121;28;20757;-42
2022/12/02 10:45:21;;;;;;;25.50;11.77;;;;;;;8.05;60.69;102622.84;5050076;28;20139;-39
2022/12/02 10:47:48;;;;;;;31.52;12.50;;;;;;;7.71;61.95;102611.53;5052520;28;20032;-42
2022/12/02 10:50:17;;;;;;;30.90;12.73;;;;;;;7.99;61.45;102606.09;5050092;28;20021;-43
2022/12/02 10:52:49;;;;;;;28.52;13.23;;;;;;;8.06;61.88;102608.16;5049759;28;20112;-41
2022/12/02 10:55:16;;;;;;;32.85;12.77;;;;;;;8.08;61.96;102606.53;5050091;28;20029;-44
2022/12/02 10:57:42;;;;;;;34.08;12.98;;;;;;;7.85;61.61;102618.34;5050375;28;20070;-40
2022/12/02 11:00:17;;;;;;;34.80;14.05;;;;;;;7.80;61.86;102626.72;5051557;28;20032;-42
2022/12/02 11:02:46;;;;;;;35.42;14.70;;;;;;;7.54;62.30;102622.72;5054044;28;20029;-44
2022/12/02 11:05:25;;;;;;;37.17;14.55;;;;;;;7.88;61.78;102615.00;5053729;28;20504;-41
2022/12/02 11:08:24;;;;;;;31.67;13.60;;;;;;;7.62;61.92;102616.25;5053758;28;20029;-41
2022/12/02 11:11:07;;;;;;;33.85;13.90;;;;;;;7.38;61.94;102615.81;5049596;28;20110;-40
2022/12/02 11:13:58;;;;;;;39.33;15.02;;;;;;;7.65;61.82;102611.22;5053647;28;20029;-41
2022/12/02 11:16:27;;;;;;;36.22;14.07;;;;;;;7.73;60.78;102615.13;5053697;28;20035;-41
2022/12/02 11:19:22;;;;;;;35.28;14.82;;;;;;;7.39;60.71;102606.31;5054361;28;20184;-42
2022/12/02 11:21:47;;;;;;;31.35;13.85;;;;;;;7.73;59.93;102607.31;5054179;28;20485;-43